Time;durP1;ratioP1;P1;durP2;ratioP2;P2;SDS_P1;SDS_P2;PMS_P1;PMS_P2;Temp;Humidity;BMP_temperature;BMP_pressure;BME280_temperature;BME280_humidity;BME280_pressure;Samples;Min_cycle;Max_cycle;Signal;HPM_P1;HPM_P2
2022/10/28 00:00:04;;;;;;;19.45;8.60;;;;;;;10.26;100.00;99321.19;2641554;28;20097;-82
2022/10/28 00:01:22;;;;;;;18.08;8.48;;;;;;;10.37;100.00;99326.31;2641342;28;20043;-84
2022/10/28 00:02:39;;;;;;;19.73;8.15;;;;;;;10.35;100.00;99321.06;2641498;28;20047;-83
2022/10/28 00:03:57;;;;;;;25.55;9.45;;;;;;;10.45;100.00;99333.19;2641883;28;20501;-82
2022/10/28 00:05:13;;;;;;;39.20;9.32;;;;;;;10.30;100.00;99328.97;2641487;28;20054;-81
2022/10/28 00:06:32;;;;;;;35.03;8.85;;;;;;;10.15;100.00;99322.19;2641649;28;20050;-81
2022/10/28 00:07:48;;;;;;;38.60;9.52;;;;;;;10.17;100.00;99328.28;2641678;28;20039;-83
2022/10/28 00:09:04;;;;;;;30.40;9.00;;;;;;;10.03;100.00;99328.41;2641650;28;20048;-81
2022/10/28 00:10:19;;;;;;;33.38;9.13;;;;;;;9.96;100.00;99332.00;2641520;28;20044;-83
2022/10/28 00:11:35;;;;;;;33.55;9.80;;;;;;;10.13;100.00;99323.09;2641822;28;20139;-81
2022/10/28 00:12:50;;;;;;;40.97;8.63;;;;;;;10.14;100.00;99324.81;2642986;28;20056;-81
2022/10/28 00:14:07;;;;;;;32.50;9.35;;;;;;;10.28;100.00;99330.75;2643980;28;20070;-81
2022/10/28 00:15:23;;;;;;;39.88;9.23;;;;;;;10.21;100.00;99329.13;2643810;28;20040;-83
2022/10/28 00:16:38;;;;;;;40.33;9.82;;;;;;;10.23;100.00;99336.94;2643630;28;20052;-82
2022/10/28 00:17:54;;;;;;;30.65;8.65;;;;;;;10.01;100.00;99335.44;2643745;28;20054;-83
2022/10/28 00:19:11;;;;;;;43.22;9.07;;;;;;;10.29;100.00;99340.34;2643779;28;20109;-81
2022/10/28 00:20:29;;;;;;;33.47;9.25;;;;;;;10.29;100.00;99339.50;2643359;28;20067;-80
2022/10/28 00:21:45;;;;;;;62.78;9.80;;;;;;;10.18;100.00;99330.00;2643703;28;20395;-82
2022/10/28 00:23:00;;;;;;;53.33;11.05;;;;;;;10.24;100.00;99334.31;2643734;28;20092;-81
2022/10/28 00:24:16;;;;;;;45.03;9.48;;;;;;;10.31;100.00;99335.94;2643547;28;20083;-81
2022/10/28 00:25:31;;;;;;;42.60;10.55;;;;;;;10.43;100.00;99336.72;2643768;28;20078;-82
2022/10/28 00:26:47;;;;;;;51.92;9.07;;;;;;;10.31;100.00;99335.09;2643598;28;20416;-81
2022/10/28 00:28:03;;;;;;;31.52;8.30;;;;;;;10.36;100.00;99345.50;2643794;28;20054;-81
2022/10/28 00:29:19;;;;;;;47.40;9.57;;;;;;;10.26;100.00;99337.75;2643807;28;20051;-82
2022/10/28 00:30:34;;;;;;;26.75;8.57;;;;;;;10.30;100.00;99334.22;2643363;28;20062;-82
2022/10/28 00:31:51;;;;;;;31.70;8.85;;;;;;;10.23;100.00;99334.31;2643410;28;20079;-82
2022/10/28 00:33:07;;;;;;;47.15;9.00;;;;;;;10.27;100.00;99331.66;2643484;28;20093;-82
2022/10/28 00:34:22;;;;;;;41.50;10.32;;;;;;;10.29;100.00;99337.72;2643746;28;20481;-82
2022/10/28 00:35:38;;;;;;;28.20;8.82;;;;;;;10.35;100.00;99333.31;2643631;28;20596;-82
2022/10/28 00:36:53;;;;;;;15.15;8.55;;;;;;;10.21;100.00;99328.22;2643709;28;20394;-82
2022/10/28 00:38:09;;;;;;;12.95;8.10;;;;;;;10.32;100.00;99334.22;2643731;28;20046;-83
2022/10/28 00:39:25;;;;;;;20.75;9.00;;;;;;;10.29;100.00;99323.78;2643307;28;20126;-83
2022/10/28 00:40:40;;;;;;;16.02;7.93;;;;;;;10.29;100.00;99322.00;2643126;28;20126;-83
2022/10/28 00:42:02;;;;;;;15.20;8.38;;;;;;;10.23;100.00;99316.00;2643431;28;20051;-82
2022/10/28 00:43:36;;;;;;;13.20;8.02;;;;;;;10.21;100.00;99325.63;2643545;28;20044;-82
2022/10/28 00:44:57;;;;;;;18.63;7.50;;;;;;;9.85;100.00;99321.66;2643278;28;20048;-82
2022/10/28 00:46:32;;;;;;;12.43;7.50;;;;;;;9.66;100.00;99323.59;2643649;28;20098;-83
2022/10/28 00:47:59;;;;;;;16.58;7.57;;;;;;;10.01;100.00;99329.34;2643519;28;20047;-82
2022/10/28 00:49:29;;;;;;;17.45;8.02;;;;;;;10.13;100.00;99323.97;2643322;28;20051;-82
2022/10/28 00:50:50;;;;;;;12.60;7.75;;;;;;;10.11;100.00;99332.72;2643076;28;20781;-83
2022/10/28 00:52:15;;;;;;;26.45;7.25;;;;;;;10.12;100.00;99323.97;2643599;28;20050;-83
2022/10/28 00:53:31;;;;;;;19.33;7.20;;;;;;;10.07;100.00;99331.88;2643533;28;20052;-82
2022/10/28 00:54:49;;;;;;;15.52;7.40;;;;;;;10.04;100.00;99324.91;2643053;28;20423;-82
2022/10/28 00:56:05;;;;;;;13.63;7.03;;;;;;;10.13;100.00;99315.25;2643306;28;20561;-83
2022/10/28 00:57:25;;;;;;;24.67;7.43;;;;;;;10.12;100.00;99323.97;2643417;28;20048;-82
2022/10/28 00:58:41;;;;;;;45.85;8.60;;;;;;;10.19;100.00;99320.38;2643567;28;20413;-82
2022/10/28 00:59:59;;;;;;;22.20;8.38;;;;;;;10.21;100.00;99317.75;2643235;28;20048;-82
2022/10/28 01:01:15;;;;;;;19.92;8.20;;;;;;;10.31;100.00;99317.63;2643117;28;20078;-82
2022/10/28 01:02:33;;;;;;;24.95;7.68;;;;;;;10.34;100.00;99318.47;2643368;28;20336;-82
2022/10/28 01:03:49;;;;;;;45.05;9.40;;;;;;;10.22;100.00;99317.75;2643289;28;20493;-82
2022/10/28 01:05:06;;;;;;;64.70;11.20;;;;;;;10.34;100.00;99318.47;2643018;28;20052;-82
2022/10/28 01:06:23;;;;;;;84.38;12.50;;;;;;;10.28;100.00;99322.06;2643233;28;20051;-81
2022/10/28 01:07:40;;;;;;;68.65;10.98;;;;;;;10.32;100.00;99324.59;2642560;28;20047;-82
2022/10/28 01:08:55;;;;;;;62.53;12.90;;;;;;;10.38;100.00;99321.03;2643189;28;20048;-82
2022/10/28 01:10:13;;;;;;;58.25;10.00;;;;;;;10.30;100.00;99318.50;2642447;28;20043;-82
2022/10/28 01:12:09;;;;;;;80.07;11.40;;;;;;;10.33;100.00;99317.63;2642690;28;20443;-82
2022/10/28 01:13:51;;;;;;;46.53;9.68;;;;;;;10.35;100.00;99318.47;2643131;28;20050;-82
2022/10/28 01:15:33;;;;;;;58.17;10.80;;;;;;;10.32;100.00;99321.97;2641610;28;20486;-81
2022/10/28 01:17:04;;;;;;;48.17;9.25;;;;;;;10.29;100.00;99323.78;2636906;28;20485;-81
2022/10/28 01:18:27;;;;;;;38.70;8.60;;;;;;;10.31;100.00;99317.63;2642592;28;20054;-81
2022/10/28 01:19:57;;;;;;;63.58;8.80;;;;;;;10.26;100.00;99321.19;2642898;28;20039;-81
2022/10/28 01:21:57;;;;;;;45.80;8.82;;;;;;;10.21;100.00;99312.53;2642233;28;20051;-82
2022/10/28 01:23:29;;;;;;;46.03;9.07;;;;;;;10.21;100.00;99318.66;2639206;28;20410;-82
2022/10/28 01:25:14;;;;;;;32.80;8.68;;;;;;;10.37;100.00;99321.06;2636485;28;20460;-82
2022/10/28 01:26:49;;;;;;;53.60;9.95;;;;;;;10.30;100.00;99322.91;2642791;28;20052;-82
2022/10/28 01:28:35;;;;;;;24.67;8.07;;;;;;;10.18;100.00;99316.03;2642897;28;20043;-82
2022/10/28 01:29:51;;;;;;;26.08;8.43;;;;;;;10.11;100.00;99309.16;2642803;28;20047;-82
2022/10/28 01:31:25;;;;;;;52.35;9.70;;;;;;;9.94;100.00;99309.34;2642154;28;20048;-82
2022/10/28 01:33:00;;;;;;;24.15;8.48;;;;;;;9.99;100.00;99318.03;2635159;28;20500;-82
2022/10/28 01:34:42;;;;;;;100.20;12.05;;;;;;;10.08;100.00;99306.59;2641110;27;20043;-82
2022/10/28 01:36:24;;;;;;;46.80;10.40;;;;;;;9.98;100.00;99311.94;2638858;28;20071;-82
2022/10/28 01:38:13;;;;;;;28.83;9.30;;;;;;;9.88;100.00;99297.22;2639255;28;20060;-82
2022/10/28 01:39:45;;;;;;;36.45;9.35;;;;;;;10.06;100.00;99295.25;2616353;27;20053;-82
2022/10/28 01:41:14;;;;;;;31.55;9.55;;;;;;;10.02;100.00;99297.06;2639271;28;20071;-82
2022/10/28 01:42:45;;;;;;;28.92;9.52;;;;;;;9.98;100.00;99297.97;2643153;28;20078;-82
2022/10/28 01:44:03;;;;;;;85.22;11.75;;;;;;;10.01;100.00;99290.09;2637921;28;20040;-82
2022/10/28 01:45:29;;;;;;;32.03;9.88;;;;;;;9.83;100.00;99289.41;2632427;28;20523;-82
2022/10/28 01:46:58;;;;;;;41.90;10.05;;;;;;;9.85;100.00;99295.53;2632469;28;20075;-83
2022/10/28 01:48:21;;;;;;;28.92;9.52;;;;;;;9.83;100.00;99296.41;2637893;28;20048;-82
2022/10/28 01:49:46;;;;;;;;;;;;;;;9.53;100.00;99293.25;2643261;28;20669;-82
2022/10/28 01:51:02;;;;;;;23.55;8.98;;;;;;;9.51;100.00;99298.47;2642910;28;19930;-84
2022/10/28 01:52:25;;;;;;;22.70;9.70;;;;;;;9.75;100.00;99304.34;2641990;28;20499;-83
2022/10/28 01:53:45;;;;;;;27.95;9.25;;;;;;;9.77;100.00;99299.06;2642471;28;20047;-83
2022/10/28 01:55:14;;;;;;;36.47;10.05;;;;;;;9.80;100.00;99292.06;2642677;28;20049;-83
2022/10/28 01:56:35;;;;;;;26.83;9.75;;;;;;;9.95;100.00;99290.16;2642932;28;20062;-83
2022/10/28 01:58:00;;;;;;;20.15;9.68;;;;;;;10.13;100.00;99296.94;2642796;28;20066;-82
2022/10/28 01:59:20;;;;;;;21.92;8.63;;;;;;;9.98;100.00;99291.00;2642688;28;20482;-83
2022/10/28 02:00:37;;;;;;;18.27;8.52;;;;;;;9.76;100.00;99290.38;2632263;28;20681;-83
2022/10/28 02:01:53;;;;;;;52.40;10.45;;;;;;;9.85;100.00;99299.88;2632220;28;20490;-84
2022/10/28 02:03:09;;;;;;;55.08;10.38;;;;;;;9.93;100.00;99297.16;2632248;28;20383;-82
2022/10/28 02:04:25;;;;;;;60.97;11.23;;;;;;;9.92;100.00;99290.19;2632189;28;20496;-82
2022/10/28 02:05:49;;;;;;;30.23;8.48;;;;;;;10.04;100.00;99295.28;2632333;28;20070;-83
2022/10/28 02:07:05;;;;;;;63.85;9.90;;;;;;;10.00;100.00;99297.06;2632043;28;20051;-82
2022/10/28 02:08:41;;;;;;;57.50;10.10;;;;;;;9.89;100.00;99301.56;2632185;28;20100;-83
2022/10/28 02:10:15;;;;;;;55.05;9.05;;;;;;;9.97;100.00;99310.19;2631845;28;20062;-82
2022/10/28 02:11:56;;;;;;;35.90;9.05;;;;;;;10.06;100.00;99303.09;2632139;28;20494;-83
2022/10/28 02:13:14;;;;;;;40.85;8.23;;;;;;;9.97;100.00;99304.09;2632090;28;20109;-82
2022/10/28 02:14:55;;;;;;;36.92;8.55;;;;;;;10.06;100.00;99303.09;2631931;28;20186;-82
2022/10/28 02:16:22;;;;;;;39.20;8.00;;;;;;;10.03;100.00;99304.88;2632009;28;20529;-82
2022/10/28 02:17:55;;;;;;;70.63;8.82;;;;;;;9.94;100.00;99297.16;2632078;28;20044;-82
2022/10/28 02:19:17;;;;;;;43.28;8.15;;;;;;;10.04;100.00;99305.75;2631976;28;20059;-82
2022/10/28 02:20:50;;;;;;;63.25;9.02;;;;;;;10.10;100.00;99313.53;2632072;28;20136;-83
2022/10/28 02:22:22;;;;;;;72.68;8.73;;;;;;;9.98;100.00;99317.16;2631985;28;20512;-82
2022/10/28 02:23:43;;;;;;;54.97;9.50;;;;;;;9.96;100.00;99312.81;2632108;28;20399;-83
2022/10/28 02:25:07;;;;;;;71.28;10.30;;;;;;;9.93;100.00;99312.84;2631926;28;20520;-83
2022/10/28 02:26:43;;;;;;;44.08;7.97;;;;;;;9.98;100.00;99304.06;2632104;28;20139;-82
2022/10/28 02:28:06;;;;;;;61.08;8.13;;;;;;;9.98;100.00;99301.47;2632173;28;20059;-82
2022/10/28 02:29:21;;;;;;;;;;;;;;;10.03;100.00;99294.41;2632224;28;20104;-83
2022/10/28 02:30:53;;;;;;;28.92;7.53;;;;;;;10.04;100.00;99293.53;2631919;28;19927;-82
2022/10/28 02:32:17;;;;;;;40.80;8.00;;;;;;;9.98;100.00;99287.50;2631919;28;20052;-82
2022/10/28 02:33:35;;;;;;;32.90;8.13;;;;;;;9.84;100.00;99283.28;2631887;28;20484;-82
2022/10/28 02:34:54;;;;;;;23.30;7.95;;;;;;;9.55;100.00;99292.31;2631649;28;20418;-82
2022/10/28 02:36:14;;;;;;;23.27;8.45;;;;;;;9.55;100.00;99289.72;2631807;28;20048;-83
2022/10/28 02:37:34;;;;;;;24.75;9.13;;;;;;;9.65;100.00;99287.88;2631850;28;20059;-83
2022/10/28 02:38:53;;;;;;;26.10;8.60;;;;;;;9.59;100.00;99274.88;2631673;28;20131;-83
2022/10/28 02:40:17;;;;;;;21.90;9.98;;;;;;;9.78;100.00;99272.03;2631468;28;20066;-83
2022/10/28 02:41:39;;;;;;;18.65;9.57;;;;;;;10.03;100.00;99275.25;2631830;28;20040;-83
2022/10/28 02:43:01;;;;;;;18.63;9.05;;;;;;;9.95;100.00;99274.47;2631612;28;20056;-83
2022/10/28 02:44:22;;;;;;;19.00;9.23;;;;;;;10.04;100.00;99271.75;2631908;28;20044;-83
2022/10/28 02:45:45;;;;;;;19.27;8.85;;;;;;;9.84;100.00;99277.22;2631630;28;20052;-82
2022/10/28 02:47:08;;;;;;;28.65;9.30;;;;;;;9.92;100.00;99283.22;2631885;28;20052;-82
2022/10/28 02:48:30;;;;;;;55.33;9.40;;;;;;;9.85;100.00;99285.06;2631905;28;20040;-83
2022/10/28 02:49:54;;;;;;;25.50;9.07;;;;;;;9.73;100.00;99286.03;2631825;28;20048;-83
2022/10/28 02:51:45;;;;;;;31.67;9.30;;;;;;;9.69;100.00;99283.47;2631904;28;20058;-83
2022/10/28 02:53:09;;;;;;;24.38;10.02;;;;;;;9.99;100.00;99282.25;2624968;28;20052;-83
2022/10/28 02:54:44;;;;;;;36.10;8.85;;;;;;;10.09;100.00;99288.25;2631840;28;20120;-83
2022/10/28 02:56:03;;;;;;;52.63;11.20;;;;;;;10.13;100.00;99289.06;2640585;28;20050;-82
2022/10/28 02:57:23;;;;;;;75.82;11.43;;;;;;;10.12;100.00;99295.19;2630579;28;20509;-83
2022/10/28 02:58:39;;;;;;;70.68;9.65;;;;;;;10.08;100.00;99286.50;2636231;28;20481;-83
2022/10/28 02:59:59;;;;;;;144.77;14.68;;;;;;;10.04;100.00;99296.13;2642007;28;20036;-82
2022/10/28 03:01:15;;;;;;;30.83;8.98;;;;;;;10.04;100.00;99301.38;2642098;28;20474;-82
2022/10/28 03:02:30;;;;;;;44.08;9.43;;;;;;;9.98;100.00;99295.34;2641773;28;20098;-83
2022/10/28 03:03:46;;;;;;;38.30;8.57;;;;;;;9.85;100.00;99298.13;2641582;28;20561;-82
2022/10/28 03:05:04;;;;;;;49.67;8.48;;;;;;;9.65;100.00;99297.47;2642103;28;20501;-82
2022/10/28 03:06:19;;;;;;;33.50;8.20;;;;;;;9.69;100.00;99302.66;2642155;28;20539;-82
2022/10/28 03:07:35;;;;;;;52.20;9.77;;;;;;;9.63;100.00;99305.31;2641935;28;20108;-82
2022/10/28 03:08:50;;;;;;;36.28;9.15;;;;;;;9.73;100.00;99301.72;2642028;28;20508;-82
2022/10/28 03:10:06;;;;;;;49.50;9.23;;;;;;;9.73;100.00;99296.50;2641115;28;20039;-82
2022/10/28 03:11:23;;;;;;;49.38;9.57;;;;;;;9.79;100.00;99295.56;2642208;28;20103;-82
2022/10/28 03:12:38;;;;;;;16.38;9.13;;;;;;;9.92;100.00;99284.97;2642111;28;20044;-82
2022/10/28 03:13:54;;;;;;;18.27;8.70;;;;;;;9.91;100.00;99278.84;2642188;28;20124;-81
2022/10/28 03:15:10;;;;;;;12.48;8.45;;;;;;;10.12;100.00;99288.19;2641945;28;20138;-82
2022/10/28 03:16:25;;;;;;;12.63;8.10;;;;;;;9.93;100.00;99284.09;2641999;28;20091;-82
2022/10/28 03:17:41;;;;;;;14.55;7.78;;;;;;;9.66;100.00;99280.91;2641893;28;20043;-82
2022/10/28 03:18:56;;;;;;;22.73;7.65;;;;;;;9.58;100.00;99278.38;2642020;28;20055;-82
2022/10/28 03:20:12;;;;;;;18.25;8.23;;;;;;;9.58;100.00;99276.63;2641788;28;20048;-82
2022/10/28 03:21:27;;;;;;;19.88;8.07;;;;;;;9.75;100.00;99262.50;2641740;28;20052;-82
2022/10/28 03:22:43;;;;;;;21.77;8.63;;;;;;;9.58;100.00;99267.91;2642091;28;20513;-82
2022/10/28 03:23:59;;;;;;;16.13;8.57;;;;;;;9.63;100.00;99268.72;2642040;28;20467;-82
2022/10/28 03:25:14;;;;;;;26.13;8.77;;;;;;;9.53;100.00;99267.94;2641902;28;20504;-82
2022/10/28 03:26:30;;;;;;;23.85;9.02;;;;;;;9.46;100.00;99267.16;2641857;28;20075;-82
2022/10/28 03:27:45;;;;;;;21.13;8.73;;;;;;;9.47;100.00;99261.03;2641962;28;20047;-81
2022/10/28 03:29:01;;;;;;;23.27;8.50;;;;;;;9.24;100.00;99257.81;2641648;28;20047;-82
2022/10/28 03:30:17;;;;;;;16.55;8.40;;;;;;;9.39;100.00;99260.25;2641658;28;20514;-82
2022/10/28 03:31:33;;;;;;;16.13;8.38;;;;;;;9.34;100.00;99256.81;2641587;28;20070;-83
2022/10/28 03:32:49;;;;;;;19.70;9.07;;;;;;;9.36;100.00;99262.91;2641873;28;20047;-83
2022/10/28 03:34:04;;;;;;;16.73;8.57;;;;;;;9.13;100.00;99253.53;2642087;28;20533;-82
2022/10/28 03:35:20;;;;;;;30.20;9.15;;;;;;;9.39;100.00;99260.25;2642014;28;20051;-82
2022/10/28 03:36:35;;;;;;;27.10;8.88;;;;;;;9.53;100.00;99261.88;2642030;28;20066;-82
2022/10/28 03:37:51;;;;;;;18.95;8.20;;;;;;;9.51;100.00;99271.47;2641799;28;20405;-82
2022/10/28 03:39:07;;;;;;;19.63;8.43;;;;;;;9.49;100.00;99268.88;2641479;28;20409;-83
2022/10/28 03:40:22;;;;;;;21.10;8.82;;;;;;;9.74;100.00;99259.00;2641750;28;20047;-84
2022/10/28 03:41:38;;;;;;;13.15;7.88;;;;;;;9.89;100.00;99260.59;2641770;28;20432;-83
2022/10/28 03:42:53;;;;;;;15.38;8.10;;;;;;;10.00;100.00;99254.38;2641959;28;20092;-83
2022/10/28 03:44:09;;;;;;;11.45;7.50;;;;;;;10.08;100.00;99259.50;2641733;28;20047;-82
2022/10/28 03:45:24;;;;;;;19.17;7.95;;;;;;;10.00;100.00;99252.59;2641971;28;20097;-82
2022/10/28 03:46:40;;;;;;;47.63;9.20;;;;;;;10.03;100.00;99256.94;2641166;28;20509;-82
2022/10/28 03:47:56;;;;;;;16.83;8.70;;;;;;;10.02;100.00;99253.44;2641537;28;20508;-82
2022/10/28 03:49:11;;;;;;;13.50;7.60;;;;;;;10.01;100.00;99264.78;2641598;28;20055;-82
2022/10/28 03:50:27;;;;;;;14.57;6.88;;;;;;;10.00;100.00;99262.22;2641638;28;20678;-82
2022/10/28 03:51:42;;;;;;;14.52;7.10;;;;;;;9.98;100.00;99262.22;2641792;28;20474;-82
2022/10/28 03:52:58;;;;;;;14.55;7.35;;;;;;;10.02;100.00;99266.53;2641967;28;20082;-82
2022/10/28 03:54:14;;;;;;;21.55;7.45;;;;;;;9.99;100.00;99266.56;2641890;28;20134;-82
2022/10/28 03:55:29;;;;;;;22.95;7.20;;;;;;;9.99;100.00;99269.19;2641644;28;20047;-82
2022/10/28 03:56:45;;;;;;;28.85;7.07;;;;;;;9.92;100.00;99272.78;2641668;28;20054;-83
2022/10/28 03:58:00;;;;;;;25.08;7.13;;;;;;;9.79;100.00;99272.03;2641681;28;20043;-83
2022/10/28 03:59:16;;;;;;;33.50;7.70;;;;;;;9.87;100.00;99277.16;2641536;28;20048;-82
2022/10/28 04:00:31;;;;;;;35.92;9.20;;;;;;;9.91;100.00;99273.63;2641600;28;20055;-82
2022/10/28 04:01:47;;;;;;;19.77;6.90;;;;;;;9.95;100.00;99277.06;2641696;28;20051;-81
2022/10/28 04:03:02;;;;;;;26.02;7.30;;;;;;;9.98;100.00;99277.03;2641718;28;20072;-82
2022/10/28 04:04:18;;;;;;;17.00;6.57;;;;;;;9.87;100.00;99272.81;2641818;28;20055;-82
2022/10/28 04:05:34;;;;;;;41.55;8.70;;;;;;;9.97;100.00;99276.19;2641848;28;20043;-82
2022/10/28 04:06:49;;;;;;;35.58;8.40;;;;;;;9.86;100.00;99273.72;2641753;28;20071;-82
2022/10/28 04:08:05;;;;;;;14.05;6.70;;;;;;;9.95;100.00;99266.63;2641674;28;20067;-82
2022/10/28 04:09:21;;;;;;;19.85;7.72;;;;;;;10.07;100.00;99263.00;2641638;28;20079;-82
2022/10/28 04:10:36;;;;;;;15.27;6.20;;;;;;;10.06;100.00;99269.97;2641633;28;20043;-82
2022/10/28 04:11:52;;;;;;;15.98;6.88;;;;;;;9.93;100.00;99261.44;2641655;28;20043;-82
2022/10/28 04:13:08;;;;;;;13.43;6.70;;;;;;;9.69;100.00;99263.44;2641474;28;20043;-82
2022/10/28 04:14:24;;;;;;;13.85;7.13;;;;;;;9.85;100.00;99263.25;2641670;28;20451;-82
2022/10/28 04:15:39;;;;;;;11.60;6.30;;;;;;;9.96;100.00;99265.72;2641626;28;20047;-82
2022/10/28 04:16:55;;;;;;;11.77;6.22;;;;;;;9.81;100.00;99261.56;2641683;28;20067;-82
2022/10/28 04:18:11;;;;;;;9.65;6.28;;;;;;;9.80;100.00;99267.69;2641798;28;20043;-82
2022/10/28 04:19:26;;;;;;;10.60;5.90;;;;;;;9.85;100.00;99266.75;2641563;28;20051;-82
2022/10/28 04:20:44;;;;;;;13.98;6.07;;;;;;;9.99;100.00;99261.34;2641630;28;20032;-82
2022/10/28 04:21:59;;;;;;;40.97;7.38;;;;;;;9.82;100.00;99261.53;2641469;28;20130;-81
2022/10/28 04:23:17;;;;;;;47.50;6.82;;;;;;;9.69;100.00;99258.19;2641476;28;20511;-82
2022/10/28 04:24:33;;;;;;;53.25;7.25;;;;;;;9.53;100.00;99267.09;2641627;28;20052;-82
2022/10/28 04:25:53;;;;;;;74.18;7.97;;;;;;;9.74;100.00;99266.84;2641679;28;20048;-81
2022/10/28 04:27:08;;;;;;;49.78;7.95;;;;;;;9.79;100.00;99264.19;2641386;28;20048;-81
2022/10/28 04:28:24;;;;;;;13.57;5.88;;;;;;;9.93;100.00;99274.50;2641679;28;20482;-81
2022/10/28 04:29:39;;;;;;;35.47;7.10;;;;;;;10.02;100.00;99270.91;2641325;28;20044;-81
2022/10/28 04:30:55;;;;;;;32.30;6.35;;;;;;;9.97;100.00;99270.06;2629936;28;20472;-82
2022/10/28 04:32:11;;;;;;;53.53;7.57;;;;;;;9.83;100.00;99265.88;2633997;28;20440;-83
2022/10/28 04:33:27;;;;;;;40.83;7.43;;;;;;;10.03;100.00;99270.88;2641483;28;20500;-82
2022/10/28 04:34:42;;;;;;;21.90;6.20;;;;;;;9.72;100.00;99268.63;2641662;28;20412;-81
2022/10/28 04:35:58;;;;;;;22.08;6.25;;;;;;;9.69;100.00;99273.88;2641664;28;20048;-82
2022/10/28 04:37:13;;;;;;;24.17;6.47;;;;;;;9.77;100.00;99267.69;2641731;28;20059;-81
2022/10/28 04:38:29;;;;;;;39.63;6.75;;;;;;;9.68;100.00;99272.16;2641175;28;20456;-82
2022/10/28 04:39:44;;;;;;;26.45;6.85;;;;;;;9.44;100.00;99268.06;2641052;28;20122;-82
2022/10/28 04:41:00;;;;;;;86.68;10.18;;;;;;;9.74;100.00;99263.38;2641273;28;20548;-82
2022/10/28 04:42:15;;;;;;;80.07;9.25;;;;;;;9.67;100.00;99267.81;2641201;28;20052;-82
2022/10/28 04:43:31;;;;;;;62.85;7.80;;;;;;;9.74;100.00;99266.84;2629907;28;20044;-82
2022/10/28 04:44:47;;;;;;;69.65;8.82;;;;;;;9.85;100.00;99264.13;2634347;28;20059;-82
2022/10/28 04:46:04;;;;;;;61.20;7.82;;;;;;;9.70;100.00;99278.22;2641209;28;20040;-82
2022/10/28 04:47:20;;;;;;;84.43;8.57;;;;;;;9.63;100.00;99271.31;2639603;28;20119;-82
2022/10/28 04:48:35;;;;;;;68.07;9.77;;;;;;;9.78;100.00;99270.31;2641169;28;20047;-82
2022/10/28 04:49:51;;;;;;;55.47;8.88;;;;;;;9.68;100.00;99271.28;2640586;28;20055;-82
2022/10/28 04:51:07;;;;;;;64.07;9.63;;;;;;;9.73;100.00;99270.34;2640945;28;20058;-82
2022/10/28 04:52:22;;;;;;;56.83;8.93;;;;;;;9.85;100.00;99278.94;2641612;28;20047;-82
2022/10/28 04:53:38;;;;;;;89.15;9.25;;;;;;;9.83;100.00;99275.50;2641507;28;20054;-82
2022/10/28 04:54:54;;;;;;;83.15;8.48;;;;;;;9.84;100.00;99271.97;2641390;28;20225;-83
2022/10/28 04:56:09;;;;;;;72.97;9.15;;;;;;;9.84;100.00;99269.38;2640998;28;20085;-82
2022/10/28 04:57:25;;;;;;;63.50;7.80;;;;;;;9.88;100.00;99271.06;2641040;28;20104;-83
2022/10/28 04:58:40;;;;;;;47.42;7.32;;;;;;;9.77;100.00;99265.97;2642536;28;20058;-83
2022/10/28 04:59:56;;;;;;;57.55;8.40;;;;;;;9.94;100.00;99268.38;2643243;28;20050;-83
2022/10/28 05:01:12;;;;;;;27.17;7.60;;;;;;;9.89;100.00;99268.44;2643035;28;20052;-82
2022/10/28 05:02:27;;;;;;;77.32;9.23;;;;;;;10.02;100.00;99266.53;2643336;28;20082;-82
2022/10/28 05:03:43;;;;;;;46.70;8.20;;;;;;;9.70;100.00;99257.31;2643379;28;20040;-81
2022/10/28 05:05:02;;;;;;;95.50;8.77;;;;;;;9.55;100.00;99255.72;2643312;28;20052;-81
2022/10/28 05:06:17;;;;;;;98.53;9.98;;;;;;;9.80;100.00;99258.06;2643161;28;20516;-81
2022/10/28 05:07:33;;;;;;;101.38;11.38;;;;;;;9.72;100.00;99252.94;2643235;28;20154;-81
2022/10/28 05:08:48;;;;;;;118.30;11.52;;;;;;;9.58;100.00;99253.09;2643395;28;20530;-81
2022/10/28 05:10:04;;;;;;;91.50;9.45;;;;;;;9.59;100.00;99252.22;2643141;28;20052;-81
2022/10/28 05:11:20;;;;;;;55.58;8.75;;;;;;;9.69;100.00;99254.69;2643098;28;20072;-82
2022/10/28 05:12:36;;;;;;;64.35;8.73;;;;;;;9.58;100.00;99253.09;2643111;28;20048;-82
2022/10/28 05:13:52;;;;;;;77.95;11.43;;;;;;;9.64;100.00;99248.66;2643162;28;20547;-82
2022/10/28 05:15:09;;;;;;;79.28;9.95;;;;;;;9.61;100.00;99255.66;2643168;28;20394;-82
2022/10/28 05:16:25;;;;;;;32.60;8.32;;;;;;;9.42;100.00;99249.78;2643244;28;20039;-82
2022/10/28 05:17:45;;;;;;;60.30;11.45;;;;;;;9.52;100.00;99250.53;2643084;28;20039;-82
2022/10/28 05:19:00;;;;;;;20.90;7.38;;;;;;;9.59;100.00;99246.09;2642852;28;20556;-81
2022/10/28 05:20:17;;;;;;;34.22;7.57;;;;;;;9.54;100.00;99250.53;2642678;28;20058;-82
2022/10/28 05:21:32;;;;;;;16.13;7.63;;;;;;;9.44;100.00;99248.00;2642845;28;20051;-82
2022/10/28 05:22:52;;;;;;;45.30;8.50;;;;;;;9.53;100.00;99244.41;2642885;28;20063;-82
2022/10/28 05:24:07;;;;;;;42.05;8.25;;;;;;;9.57;100.00;99247.88;2643082;28;20534;-82
2022/10/28 05:25:23;;;;;;;33.47;8.38;;;;;;;9.41;100.00;99250.66;2642808;28;20127;-82
2022/10/28 05:26:39;;;;;;;32.13;8.45;;;;;;;9.38;100.00;99247.19;2642992;28;20504;-81
2022/10/28 05:27:58;;;;;;;25.25;9.38;;;;;;;9.44;100.00;99249.75;2643005;28;20071;-81
2022/10/28 05:29:14;;;;;;;22.63;8.75;;;;;;;9.50;100.00;99246.19;2642642;28;20047;-81
2022/10/28 05:30:30;;;;;;;24.13;8.93;;;;;;;9.37;100.00;99246.34;2642831;28;20052;-81
2022/10/28 05:31:46;;;;;;;35.47;10.43;;;;;;;9.44;100.00;99250.63;2642789;28;20576;-82
2022/10/28 05:33:01;;;;;;;28.67;8.77;;;;;;;9.50;100.00;99243.56;2642769;28;20444;-81
2022/10/28 05:34:17;;;;;;;31.10;9.05;;;;;;;9.51;100.00;99246.19;2641919;28;20141;-81
2022/10/28 05:35:33;;;;;;;32.30;9.38;;;;;;;9.65;100.00;99240.81;2641551;28;20047;-80
2022/10/28 05:36:49;;;;;;;19.50;8.73;;;;;;;9.75;100.00;99241.56;2641348;28;20112;-83
2022/10/28 05:38:05;;;;;;;57.13;11.02;;;;;;;9.84;100.00;99244.06;2630247;28;20479;-80
2022/10/28 05:39:21;;;;;;;49.88;10.38;;;;;;;9.83;100.00;99244.09;2634328;28;20050;-80
2022/10/28 05:40:37;;;;;;;60.95;9.60;;;;;;;9.80;100.00;99255.44;2641065;28;20075;-80
2022/10/28 05:41:52;;;;;;;38.03;8.90;;;;;;;9.63;100.00;99244.34;2641443;28;20047;-81
2022/10/28 05:43:09;;;;;;;81.45;10.73;;;;;;;9.79;100.00;99258.09;2641209;28;20051;-80
2022/10/28 05:44:25;;;;;;;78.95;9.75;;;;;;;9.65;100.00;99251.28;2641151;28;20053;-80
2022/10/28 05:45:40;;;;;;;32.35;7.30;;;;;;;9.55;100.00;99257.47;2641311;28;20046;-80
2022/10/28 05:46:56;;;;;;;53.90;8.45;;;;;;;9.78;100.00;99262.47;2641341;28;20492;-81
2022/10/28 05:48:11;;;;;;;75.80;10.18;;;;;;;9.82;100.00;99258.06;2640816;28;20066;-80
2022/10/28 05:49:27;;;;;;;74.55;9.70;;;;;;;9.92;100.00;99257.06;2639565;28;20558;-80
2022/10/28 05:50:42;;;;;;;69.35;10.13;;;;;;;10.04;100.00;99264.75;2641135;28;20086;-81
2022/10/28 05:51:58;;;;;;;52.78;8.95;;;;;;;10.08;100.00;99259.50;2641204;28;20044;-81
2022/10/28 05:53:14;;;;;;;15.65;8.02;;;;;;;10.11;100.00;99259.44;2641202;28;20090;-81
2022/10/28 05:54:29;;;;;;;42.42;8.30;;;;;;;10.08;100.00;99255.13;2641168;28;20169;-81
2022/10/28 05:55:45;;;;;;;25.55;7.35;;;;;;;10.04;100.00;99256.06;2641190;28;20130;-81
2022/10/28 05:57:00;;;;;;;30.50;8.30;;;;;;;9.89;100.00;99257.97;2641962;28;20043;-82
2022/10/28 05:58:16;;;;;;;15.50;7.63;;;;;;;9.92;100.00;99246.63;2630408;28;20129;-82
2022/10/28 05:59:31;;;;;;;28.60;8.00;;;;;;;10.00;100.00;99252.59;2635389;28;20409;-81
2022/10/28 06:00:47;;;;;;;36.47;8.32;;;;;;;9.97;100.00;99257.00;2642871;28;20062;-82
2022/10/28 06:02:03;;;;;;;56.33;9.05;;;;;;;9.77;100.00;99257.22;2642641;28;20064;-81
2022/10/28 06:03:18;;;;;;;47.53;8.70;;;;;;;9.67;100.00;99254.75;2642170;28;20493;-82
2022/10/28 06:04:34;;;;;;;18.08;7.68;;;;;;;9.41;100.00;99257.63;2641688;28;20051;-82
2022/10/28 06:05:50;;;;;;;36.42;9.50;;;;;;;9.41;100.00;99253.28;2642613;28;20059;-82
2022/10/28 06:07:05;;;;;;;22.48;9.02;;;;;;;9.54;100.00;99255.75;2642572;28;20053;-82